sensor_id;sensor_type;location;lat;lon;timestamp;temperature;humidity
18932;DHT22;9598;50.954;3.112;2024-01-16T00:04:50;2.40;99.90
18932;DHT22;9598;50.954;3.112;2024-01-16T00:09:53;2.40;99.90
18932;DHT22;9598;50.954;3.112;2024-01-16T00:14:55;2.30;99.90
18932;DHT22;9598;50.954;3.112;2024-01-16T00:19:57;2.30;99.90
18932;DHT22;9598;50.954;3.112;2024-01-16T00:25:03;2.20;99.90
18932;DHT22;9598;50.954;3.112;2024-01-16T00:30:06;2.10;99.90
18932;DHT22;9598;50.954;3.112;2024-01-16T00:35:09;2.00;99.90
18932;DHT22;9598;50.954;3.112;2024-01-16T00:40:13;2.00;99.90
18932;DHT22;9598;50.954;3.112;2024-01-16T00:45:15;2.00;99.90
18932;DHT22;9598;50.954;3.112;2024-01-16T00:50:18;2.00;99.90
18932;DHT22;9598;50.954;3.112;2024-01-16T00:55:21;2.00;99.90
18932;DHT22;9598;50.954;3.112;2024-01-16T01:00:23;1.90;99.90
18932;DHT22;9598;50.954;3.112;2024-01-16T01:05:25;1.90;99.90
18932;DHT22;9598;50.954;3.112;2024-01-16T01:10:30;1.90;99.90
18932;DHT22;9598;50.954;3.112;2024-01-16T01:15:36;1.90;99.90
18932;DHT22;9598;50.954;3.112;2024-01-16T01:20:38;2.00;99.90
18932;DHT22;9598;50.954;3.112;2024-01-16T01:25:41;2.00;99.90
18932;DHT22;9598;50.954;3.112;2024-01-16T01:30:43;2.00;99.90
18932;DHT22;9598;50.954;3.112;2024-01-16T01:35:45;2.00;99.90
18932;DHT22;9598;50.954;3.112;2024-01-16T01:40:49;2.00;99.90
18932;DHT22;9598;50.954;3.112;2024-01-16T01:46:09;2.00;99.90
18932;DHT22;9598;50.954;3.112;2024-01-16T01:51:12;2.00;99.90
18932;DHT22;9598;50.954;3.112;2024-01-16T01:56:18;2.00;99.90
18932;DHT22;9598;50.954;3.112;2024-01-16T02:01:21;2.00;99.90
18932;DHT22;9598;50.954;3.112;2024-01-16T02:06:24;2.00;99.90
18932;DHT22;9598;50.954;3.112;2024-01-16T02:11:27;1.90;99.90
18932;DHT22;9598;50.954;3.112;2024-01-16T02:16:35;1.90;99.90
18932;DHT22;9598;50.954;3.112;2024-01-16T02:21:39;1.90;99.90
18932;DHT22;9598;50.954;3.112;2024-01-16T02:26:45;2.00;99.90
18932;DHT22;9598;50.954;3.112;2024-01-16T02:31:47;2.00;99.90
18932;DHT22;9598;50.954;3.112;2024-01-16T02:36:49;1.90;99.90
18932;DHT22;9598;50.954;3.112;2024-01-16T02:41:53;1.90;99.90
18932;DHT22;9598;50.954;3.112;2024-01-16T02:46:55;1.80;99.90
18932;DHT22;9598;50.954;3.112;2024-01-16T02:51:57;1.80;99.90
18932;DHT22;9598;50.954;3.112;2024-01-16T02:57:00;1.70;99.90
18932;DHT22;9598;50.954;3.112;2024-01-16T03:02:03;1.70;99.90
18932;DHT22;9598;50.954;3.112;2024-01-16T03:07:05;1.60;99.90
18932;DHT22;9598;50.954;3.112;2024-01-16T03:12:08;1.60;99.90
18932;DHT22;9598;50.954;3.112;2024-01-16T03:17:10;1.70;99.90
18932;DHT22;9598;50.954;3.112;2024-01-16T03:22:12;1.70;99.90
18932;DHT22;9598;50.954;3.112;2024-01-16T03:27:16;1.60;99.90
18932;DHT22;9598;50.954;3.112;2024-01-16T03:32:18;1.60;99.90
18932;DHT22;9598;50.954;3.112;2024-01-16T03:37:20;1.50;99.90
18932;DHT22;9598;50.954;3.112;2024-01-16T03:42:24;1.50;99.90
18932;DHT22;9598;50.954;3.112;2024-01-16T03:47:26;1.60;99.90
18932;DHT22;9598;50.954;3.112;2024-01-16T03:52:29;1.60;99.90
18932;DHT22;9598;50.954;3.112;2024-01-16T03:57:32;1.60;99.90
18932;DHT22;9598;50.954;3.112;2024-01-16T04:02:34;1.60;99.90
18932;DHT22;9598;50.954;3.112;2024-01-16T04:07:38;1.60;99.90
18932;DHT22;9598;50.954;3.112;2024-01-16T04:12:42;1.70;99.90
18932;DHT22;9598;50.954;3.112;2024-01-16T04:17:44;1.60;99.90
18932;DHT22;9598;50.954;3.112;2024-01-16T04:22:46;1.60;99.90
18932;DHT22;9598;50.954;3.112;2024-01-16T04:27:49;1.60;99.90
18932;DHT22;9598;50.954;3.112;2024-01-16T04:32:51;1.60;99.90
18932;DHT22;9598;50.954;3.112;2024-01-16T04:37:53;1.60;99.90
18932;DHT22;9598;50.954;3.112;2024-01-16T04:42:57;1.60;99.90
18932;DHT22;9598;50.954;3.112;2024-01-16T04:48:02;1.50;99.90
18932;DHT22;9598;50.954;3.112;2024-01-16T04:53:04;1.50;99.90
18932;DHT22;9598;50.954;3.112;2024-01-16T04:58:08;1.60;99.90
18932;DHT22;9598;50.954;3.112;2024-01-16T05:03:11;1.60;99.90
18932;DHT22;9598;50.954;3.112;2024-01-16T05:08:13;1.60;99.90
18932;DHT22;9598;50.954;3.112;2024-01-16T05:13:16;1.60;99.90
18932;DHT22;9598;50.954;3.112;2024-01-16T05:18:18;1.60;99.90
18932;DHT22;9598;50.954;3.112;2024-01-16T05:23:20;1.60;99.90
18932;DHT22;9598;50.954;3.112;2024-01-16T05:28:24;1.60;99.90
18932;DHT22;9598;50.954;3.112;2024-01-16T05:33:26;1.60;99.90
18932;DHT22;9598;50.954;3.112;2024-01-16T05:38:28;1.60;99.90
18932;DHT22;9598;50.954;3.112;2024-01-16T05:43:31;1.60;99.90
18932;DHT22;9598;50.954;3.112;2024-01-16T05:48:33;1.60;99.90
18932;DHT22;9598;50.954;3.112;2024-01-16T05:53:35;1.60;99.90
18932;DHT22;9598;50.954;3.112;2024-01-16T05:58:41;1.60;99.90
18932;DHT22;9598;50.954;3.112;2024-01-16T06:03:43;1.50;99.90
18932;DHT22;9598;50.954;3.112;2024-01-16T06:08:47;1.50;99.90
18932;DHT22;9598;50.954;3.112;2024-01-16T06:13:50;1.60;99.90
18932;DHT22;9598;50.954;3.112;2024-01-16T06:18:53;1.50;99.90
18932;DHT22;9598;50.954;3.112;2024-01-16T06:23:55;1.50;99.90
18932;DHT22;9598;50.954;3.112;2024-01-16T06:28:58;1.50;99.90
18932;DHT22;9598;50.954;3.112;2024-01-16T06:34:00;1.50;99.90
18932;DHT22;9598;50.954;3.112;2024-01-16T06:39:02;1.50;99.90
18932;DHT22;9598;50.954;3.112;2024-01-16T06:44:06;1.40;99.90
18932;DHT22;9598;50.954;3.112;2024-01-16T06:49:08;1.40;99.90
18932;DHT22;9598;50.954;3.112;2024-01-16T06:54:10;1.40;99.90
18932;DHT22;9598;50.954;3.112;2024-01-16T06:59:14;1.40;99.90
18932;DHT22;9598;50.954;3.112;2024-01-16T07:04:17;1.30;99.90
18932;DHT22;9598;50.954;3.112;2024-01-16T07:09:19;1.30;99.90
18932;DHT22;9598;50.954;3.112;2024-01-16T07:14:23;1.30;99.90
18932;DHT22;9598;50.954;3.112;2024-01-16T07:19:25;1.20;99.90
18932;DHT22;9598;50.954;3.112;2024-01-16T07:24:27;1.40;99.90
18932;DHT22;9598;50.954;3.112;2024-01-16T07:29:30;1.30;99.90
18932;DHT22;9598;50.954;3.112;2024-01-16T07:34:33;1.30;99.90
18932;DHT22;9598;50.954;3.112;2024-01-16T07:39:35;1.30;99.90
18932;DHT22;9598;50.954;3.112;2024-01-16T07:44:39;1.20;99.90
18932;DHT22;9598;50.954;3.112;2024-01-16T07:49:41;1.20;99.90
18932;DHT22;9598;50.954;3.112;2024-01-16T07:54:44;1.20;99.90
18932;DHT22;9598;50.954;3.112;2024-01-16T07:59:47;1.30;99.90
18932;DHT22;9598;50.954;3.112;2024-01-16T08:04:49;1.30;99.90
18932;DHT22;9598;50.954;3.112;2024-01-16T08:09:51;1.30;99.90
18932;DHT22;9598;50.954;3.112;2024-01-16T08:14:55;1.40;99.90
18932;DHT22;9598;50.954;3.112;2024-01-16T08:19:57;1.40;99.90
18932;DHT22;9598;50.954;3.112;2024-01-16T08:24:59;1.40;99.90
18932;DHT22;9598;50.954;3.112;2024-01-16T08:30:03;1.40;99.90
18932;DHT22;9598;50.954;3.112;2024-01-16T08:35:06;1.50;99.90
18932;DHT22;9598;50.954;3.112;2024-01-16T08:40:10;1.60;99.90
18932;DHT22;9598;50.954;3.112;2024-01-16T08:45:14;1.60;99.90
18932;DHT22;9598;50.954;3.112;2024-01-16T08:50:16;1.70;99.90
18932;DHT22;9598;50.954;3.112;2024-01-16T08:55:19;1.70;99.90
18932;DHT22;9598;50.954;3.112;2024-01-16T09:00:22;1.80;99.90
18932;DHT22;9598;50.954;3.112;2024-01-16T09:05:24;1.80;99.90
18932;DHT22;9598;50.954;3.112;2024-01-16T09:10:27;1.80;99.90
18932;DHT22;9598;50.954;3.112;2024-01-16T09:15:30;1.90;99.90
18932;DHT22;9598;50.954;3.112;2024-01-16T09:20:33;1.90;99.90
18932;DHT22;9598;50.954;3.112;2024-01-16T09:25:35;1.90;99.90
18932;DHT22;9598;50.954;3.112;2024-01-16T09:30:39;1.90;99.90
18932;DHT22;9598;50.954;3.112;2024-01-16T09:35:41;2.00;99.90
18932;DHT22;9598;50.954;3.112;2024-01-16T09:40:43;2.00;99.90
18932;DHT22;9598;50.954;3.112;2024-01-16T09:45:49;2.00;99.90
18932;DHT22;9598;50.954;3.112;2024-01-16T09:50:53;2.10;99.90
18932;DHT22;9598;50.954;3.112;2024-01-16T09:55:58;2.20;99.90
18932;DHT22;9598;50.954;3.112;2024-01-16T10:01:05;2.20;99.90
18932;DHT22;9598;50.954;3.112;2024-01-16T10:06:07;2.30;99.90
18932;DHT22;9598;50.954;3.112;2024-01-16T10:11:10;2.30;99.90
18932;DHT22;9598;50.954;3.112;2024-01-16T10:16:13;2.40;99.90
18932;DHT22;9598;50.954;3.112;2024-01-16T10:21:20;2.50;99.90
18932;DHT22;9598;50.954;3.112;2024-01-16T10:26:23;2.50;99.90
18932;DHT22;9598;50.954;3.112;2024-01-16T10:31:30;2.60;99.90
18932;DHT22;9598;50.954;3.112;2024-01-16T10:36:32;2.60;99.90
18932;DHT22;9598;50.954;3.112;2024-01-16T10:41:34;2.70;99.90
18932;DHT22;9598;50.954;3.112;2024-01-16T10:46:39;2.80;99.90
18932;DHT22;9598;50.954;3.112;2024-01-16T10:51:43;2.80;99.90
18932;DHT22;9598;50.954;3.112;2024-01-16T10:56:46;2.80;99.90
18932;DHT22;9598;50.954;3.112;2024-01-16T11:01:52;2.80;99.90
18932;DHT22;9598;50.954;3.112;2024-01-16T11:06:56;2.90;99.90
18932;DHT22;9598;50.954;3.112;2024-01-16T11:11:58;3.00;99.90
18932;DHT22;9598;50.954;3.112;2024-01-16T11:17:03;3.00;99.90
18932;DHT22;9598;50.954;3.112;2024-01-16T11:22:06;3.10;99.90
18932;DHT22;9598;50.954;3.112;2024-01-16T11:27:08;3.20;99.90
18932;DHT22;9598;50.954;3.112;2024-01-16T11:32:32;3.30;99.90
18932;DHT22;9598;50.954;3.112;2024-01-16T11:37:35;3.30;99.90
18932;DHT22;9598;50.954;3.112;2024-01-16T11:42:38;3.40;99.90
18932;DHT22;9598;50.954;3.112;2024-01-16T11:47:45;3.50;99.90
18932;DHT22;9598;50.954;3.112;2024-01-16T11:52:47;3.50;99.90
18932;DHT22;9598;50.954;3.112;2024-01-16T11:58:01;3.70;99.90
18932;DHT22;9598;50.954;3.112;2024-01-16T12:03:08;3.70;99.90
18932;DHT22;9598;50.954;3.112;2024-01-16T12:08:10;3.70;99.90
18932;DHT22;9598;50.954;3.112;2024-01-16T12:13:14;3.70;99.90
18932;DHT22;9598;50.954;3.112;2024-01-16T12:18:19;3.70;99.90
18932;DHT22;9598;50.954;3.112;2024-01-16T12:23:21;3.80;99.90
18932;DHT22;9598;50.954;3.112;2024-01-16T12:28:24;3.90;99.90
18932;DHT22;9598;50.954;3.112;2024-01-16T12:33:27;4.00;99.90
18932;DHT22;9598;50.954;3.112;2024-01-16T12:38:30;3.90;99.90
18932;DHT22;9598;50.954;3.112;2024-01-16T12:43:33;3.90;99.90
18932;DHT22;9598;50.954;3.112;2024-01-16T12:48:36;4.00;99.90
18932;DHT22;9598;50.954;3.112;2024-01-16T12:53:39;4.00;99.90
18932;DHT22;9598;50.954;3.112;2024-01-16T12:58:41;4.10;99.90
18932;DHT22;9598;50.954;3.112;2024-01-16T13:03:45;4.20;99.90
18932;DHT22;9598;50.954;3.112;2024-01-16T13:08:48;4.10;99.90
18932;DHT22;9598;50.954;3.112;2024-01-16T13:14:01;4.20;99.90
18932;DHT22;9598;50.954;3.112;2024-01-16T13:19:05;4.30;99.90
18932;DHT22;9598;50.954;3.112;2024-01-16T13:24:10;4.40;99.90
18932;DHT22;9598;50.954;3.112;2024-01-16T13:29:13;4.30;99.90
18932;DHT22;9598;50.954;3.112;2024-01-16T13:34:17;4.30;99.90
18932;DHT22;9598;50.954;3.112;2024-01-16T13:39:21;4.30;99.90
18932;DHT22;9598;50.954;3.112;2024-01-16T13:44:23;4.40;99.90
18932;DHT22;9598;50.954;3.112;2024-01-16T13:49:27;4.40;99.90
18932;DHT22;9598;50.954;3.112;2024-01-16T13:54:29;4.50;99.90
18932;DHT22;9598;50.954;3.112;2024-01-16T13:59:31;4.50;99.90
18932;DHT22;9598;50.954;3.112;2024-01-16T14:04:35;4.50;99.90
18932;DHT22;9598;50.954;3.112;2024-01-16T14:09:37;4.50;99.90
18932;DHT22;9598;50.954;3.112;2024-01-16T14:14:40;4.40;99.90
18932;DHT22;9598;50.954;3.112;2024-01-16T14:19:44;4.40;99.90
18932;DHT22;9598;50.954;3.112;2024-01-16T14:24:46;4.40;99.90
18932;DHT22;9598;50.954;3.112;2024-01-16T14:29:51;4.50;99.90
18932;DHT22;9598;50.954;3.112;2024-01-16T14:34:56;4.60;99.90
18932;DHT22;9598;50.954;3.112;2024-01-16T14:39:58;4.50;99.90
18932;DHT22;9598;50.954;3.112;2024-01-16T14:45:02;4.50;99.90
18932;DHT22;9598;50.954;3.112;2024-01-16T14:50:07;4.50;99.90
18932;DHT22;9598;50.954;3.112;2024-01-16T14:55:10;4.40;99.90
18932;DHT22;9598;50.954;3.112;2024-01-16T15:00:14;4.40;99.90
18932;DHT22;9598;50.954;3.112;2024-01-16T15:05:21;4.30;99.90
18932;DHT22;9598;50.954;3.112;2024-01-16T15:10:23;4.20;99.90
18932;DHT22;9598;50.954;3.112;2024-01-16T15:15:26;4.20;99.90
18932;DHT22;9598;50.954;3.112;2024-01-16T15:20:30;4.20;99.90
18932;DHT22;9598;50.954;3.112;2024-01-16T15:25:32;4.20;99.90
18932;DHT22;9598;50.954;3.112;2024-01-16T15:30:34;4.20;99.90
18932;DHT22;9598;50.954;3.112;2024-01-16T15:35:38;4.20;99.90
18932;DHT22;9598;50.954;3.112;2024-01-16T15:40:40;4.20;99.90
18932;DHT22;9598;50.954;3.112;2024-01-16T15:45:42;4.10;99.90
18932;DHT22;9598;50.954;3.112;2024-01-16T15:50:45;4.10;99.90
18932;DHT22;9598;50.954;3.112;2024-01-16T15:55:47;4.10;99.90
18932;DHT22;9598;50.954;3.112;2024-01-16T16:00:49;4.10;99.90
18932;DHT22;9598;50.954;3.112;2024-01-16T16:05:53;4.00;99.90
18932;DHT22;9598;50.954;3.112;2024-01-16T16:10:55;4.00;99.90
18932;DHT22;9598;50.954;3.112;2024-01-16T16:15:57;4.00;99.90
18932;DHT22;9598;50.954;3.112;2024-01-16T16:21:01;3.90;99.90
18932;DHT22;9598;50.954;3.112;2024-01-16T16:26:03;3.80;99.90
18932;DHT22;9598;50.954;3.112;2024-01-16T16:31:06;3.80;99.90
18932;DHT22;9598;50.954;3.112;2024-01-16T16:36:09;3.70;99.90
18932;DHT22;9598;50.954;3.112;2024-01-16T16:41:12;3.60;99.90
18932;DHT22;9598;50.954;3.112;2024-01-16T16:46:15;3.60;99.90
18932;DHT22;9598;50.954;3.112;2024-01-16T16:51:19;3.50;99.90
18932;DHT22;9598;50.954;3.112;2024-01-16T16:56:23;3.40;99.90
18932;DHT22;9598;50.954;3.112;2024-01-16T17:01:25;3.40;99.90
18932;DHT22;9598;50.954;3.112;2024-01-16T17:06:28;3.30;99.90
18932;DHT22;9598;50.954;3.112;2024-01-16T17:11:30;3.30;99.90
18932;DHT22;9598;50.954;3.112;2024-01-16T17:16:33;3.20;99.90
18932;DHT22;9598;50.954;3.112;2024-01-16T17:21:36;3.10;99.90
18932;DHT22;9598;50.954;3.112;2024-01-16T17:26:39;3.10;99.90
18932;DHT22;9598;50.954;3.112;2024-01-16T17:31:42;3.00;99.90
18932;DHT22;9598;50.954;3.112;2024-01-16T17:36:45;3.00;99.90
18932;DHT22;9598;50.954;3.112;2024-01-16T17:41:47;2.90;99.90
18932;DHT22;9598;50.954;3.112;2024-01-16T17:46:50;2.90;99.90
18932;DHT22;9598;50.954;3.112;2024-01-16T17:51:54;2.90;99.90
18932;DHT22;9598;50.954;3.112;2024-01-16T17:56:56;2.90;99.90
18932;DHT22;9598;50.954;3.112;2024-01-16T18:01:58;2.80;99.90
18932;DHT22;9598;50.954;3.112;2024-01-16T18:07:01;2.80;99.90
18932;DHT22;9598;50.954;3.112;2024-01-16T18:12:06;2.80;99.90
18932;DHT22;9598;50.954;3.112;2024-01-16T18:17:08;2.80;99.90
18932;DHT22;9598;50.954;3.112;2024-01-16T18:22:12;2.80;99.90
18932;DHT22;9598;50.954;3.112;2024-01-16T18:27:14;2.70;99.90
18932;DHT22;9598;50.954;3.112;2024-01-16T18:32:17;2.70;99.90
18932;DHT22;9598;50.954;3.112;2024-01-16T18:37:20;2.70;99.90
18932;DHT22;9598;50.954;3.112;2024-01-16T18:42:24;2.60;99.90
18932;DHT22;9598;50.954;3.112;2024-01-16T18:47:26;2.60;99.90
18932;DHT22;9598;50.954;3.112;2024-01-16T18:52:30;2.50;99.90
18932;DHT22;9598;50.954;3.112;2024-01-16T18:57:32;2.50;99.90
18932;DHT22;9598;50.954;3.112;2024-01-16T19:02:34;2.50;99.90
18932;DHT22;9598;50.954;3.112;2024-01-16T19:07:38;2.50;99.90
18932;DHT22;9598;50.954;3.112;2024-01-16T19:12:41;2.50;99.90
18932;DHT22;9598;50.954;3.112;2024-01-16T19:17:44;2.40;99.90
18932;DHT22;9598;50.954;3.112;2024-01-16T19:22:48;2.30;99.90
18932;DHT22;9598;50.954;3.112;2024-01-16T19:27:53;2.30;99.90
18932;DHT22;9598;50.954;3.112;2024-01-16T19:32:55;2.30;99.90
18932;DHT22;9598;50.954;3.112;2024-01-16T19:37:58;2.30;99.90
18932;DHT22;9598;50.954;3.112;2024-01-16T19:43:01;2.20;99.90
18932;DHT22;9598;50.954;3.112;2024-01-16T19:48:06;2.20;99.90
18932;DHT22;9598;50.954;3.112;2024-01-16T19:53:14;2.10;99.90
18932;DHT22;9598;50.954;3.112;2024-01-16T19:58:17;2.10;99.90
18932;DHT22;9598;50.954;3.112;2024-01-16T20:03:19;2.10;99.90
18932;DHT22;9598;50.954;3.112;2024-01-16T20:08:23;2.10;99.90
18932;DHT22;9598;50.954;3.112;2024-01-16T20:13:26;2.10;99.90
18932;DHT22;9598;50.954;3.112;2024-01-16T20:18:29;2.10;99.90
18932;DHT22;9598;50.954;3.112;2024-01-16T20:23:33;2.00;99.90
18932;DHT22;9598;50.954;3.112;2024-01-16T20:28:35;2.00;99.90
18932;DHT22;9598;50.954;3.112;2024-01-16T20:33:37;2.00;99.90
18932;DHT22;9598;50.954;3.112;2024-01-16T20:38:42;1.90;99.90
18932;DHT22;9598;50.954;3.112;2024-01-16T20:43:45;1.90;99.90
18932;DHT22;9598;50.954;3.112;2024-01-16T20:48:47;1.80;99.90
18932;DHT22;9598;50.954;3.112;2024-01-16T20:53:51;1.90;99.90
18932;DHT22;9598;50.954;3.112;2024-01-16T20:58:54;1.90;99.90
18932;DHT22;9598;50.954;3.112;2024-01-16T21:03:56;1.90;99.90
18932;DHT22;9598;50.954;3.112;2024-01-16T21:09:00;1.90;99.90
18932;DHT22;9598;50.954;3.112;2024-01-16T21:14:03;1.90;99.90
18932;DHT22;9598;50.954;3.112;2024-01-16T21:19:06;1.90;99.90
18932;DHT22;9598;50.954;3.112;2024-01-16T21:24:09;2.00;99.90
18932;DHT22;9598;50.954;3.112;2024-01-16T21:29:11;1.90;99.90
18932;DHT22;9598;50.954;3.112;2024-01-16T21:34:17;2.00;99.90
18932;DHT22;9598;50.954;3.112;2024-01-16T21:39:24;1.90;99.90
18932;DHT22;9598;50.954;3.112;2024-01-16T21:44:26;1.90;99.90
18932;DHT22;9598;50.954;3.112;2024-01-16T21:49:29;1.90;99.90
18932;DHT22;9598;50.954;3.112;2024-01-16T21:54:32;1.90;99.90
18932;DHT22;9598;50.954;3.112;2024-01-16T21:59:34;1.90;99.90
18932;DHT22;9598;50.954;3.112;2024-01-16T22:04:37;1.80;99.90
18932;DHT22;9598;50.954;3.112;2024-01-16T22:09:40;1.80;99.90
18932;DHT22;9598;50.954;3.112;2024-01-16T22:14:42;1.80;99.90
18932;DHT22;9598;50.954;3.112;2024-01-16T22:19:44;1.80;99.90
18932;DHT22;9598;50.954;3.112;2024-01-16T22:24:48;1.70;99.90
18932;DHT22;9598;50.954;3.112;2024-01-16T22:29:50;1.70;99.90
18932;DHT22;9598;50.954;3.112;2024-01-16T22:34:52;1.70;99.90
18932;DHT22;9598;50.954;3.112;2024-01-16T22:39:56;1.60;99.90
18932;DHT22;9598;50.954;3.112;2024-01-16T22:44:58;1.60;99.90
18932;DHT22;9598;50.954;3.112;2024-01-16T22:50:00;1.60;99.90
18932;DHT22;9598;50.954;3.112;2024-01-16T22:55:06;1.60;99.90
18932;DHT22;9598;50.954;3.112;2024-01-16T23:00:09;1.50;99.90
18932;DHT22;9598;50.954;3.112;2024-01-16T23:05:19;1.50;99.90
18932;DHT22;9598;50.954;3.112;2024-01-16T23:10:22;1.60;99.90
18932;DHT22;9598;50.954;3.112;2024-01-16T23:15:26;1.60;99.90
18932;DHT22;9598;50.954;3.112;2024-01-16T23:20:28;1.60;99.90
18932;DHT22;9598;50.954;3.112;2024-01-16T23:25:32;1.60;99.90
18932;DHT22;9598;50.954;3.112;2024-01-16T23:30:35;1.60;99.90
18932;DHT22;9598;50.954;3.112;2024-01-16T23:35:37;1.50;99.90
18932;DHT22;9598;50.954;3.112;2024-01-16T23:40:44;1.50;99.90
18932;DHT22;9598;50.954;3.112;2024-01-16T23:45:46;1.50;99.90
18932;DHT22;9598;50.954;3.112;2024-01-16T23:50:48;1.50;99.90
18932;DHT22;9598;50.954;3.112;2024-01-16T23:55:52;1.50;99.90
